sensor_id;sensor_type;location;lat;lon;timestamp;P1;durP1;ratioP1;P2;durP2;ratioP2
54599;SDS011;40500;51.084;16.958;2023-06-24T00:00:41;25.20;;;17.60;;
54599;SDS011;40500;51.084;16.958;2023-06-24T00:03:09;23.20;;;18.00;;
54599;SDS011;40500;51.084;16.958;2023-06-24T00:05:38;27.80;;;20.10;;
54599;SDS011;40500;51.084;16.958;2023-06-24T00:08:10;25.60;;;20.70;;
54599;SDS011;40500;51.084;16.958;2023-06-24T00:10:38;25.30;;;20.30;;
54599;SDS011;40500;51.084;16.958;2023-06-24T00:13:05;26.30;;;18.00;;
54599;SDS011;40500;51.084;16.958;2023-06-24T00:15:33;22.70;;;18.80;;
54599;SDS011;40500;51.084;16.958;2023-06-24T00:18:01;21.20;;;16.20;;
54599;SDS011;40500;51.084;16.958;2023-06-24T00:20:32;23.90;;;15.80;;
54599;SDS011;40500;51.084;16.958;2023-06-24T00:23:01;18.20;;;14.80;;
54599;SDS011;40500;51.084;16.958;2023-06-24T00:25:29;20.80;;;15.40;;
54599;SDS011;40500;51.084;16.958;2023-06-24T00:27:56;22.40;;;16.20;;
54599;SDS011;40500;51.084;16.958;2023-06-24T00:30:25;17.30;;;13.30;;
54599;SDS011;40500;51.084;16.958;2023-06-24T00:32:56;20.00;;;13.80;;
54599;SDS011;40500;51.084;16.958;2023-06-24T00:35:23;19.10;;;16.20;;
54599;SDS011;40500;51.084;16.958;2023-06-24T00:37:52;17.70;;;13.90;;
54599;SDS011;40500;51.084;16.958;2023-06-24T00:40:24;21.00;;;15.00;;
54599;SDS011;40500;51.084;16.958;2023-06-24T00:42:52;19.30;;;14.70;;
54599;SDS011;40500;51.084;16.958;2023-06-24T00:45:21;22.20;;;15.40;;
54599;SDS011;40500;51.084;16.958;2023-06-24T00:47:49;19.80;;;15.00;;
54599;SDS011;40500;51.084;16.958;2023-06-24T00:50:18;17.00;;;13.90;;
54599;SDS011;40500;51.084;16.958;2023-06-24T00:52:46;21.60;;;14.90;;
54599;SDS011;40500;51.084;16.958;2023-06-24T00:55:16;20.90;;;14.60;;
54599;SDS011;40500;51.084;16.958;2023-06-24T00:57:47;17.70;;;13.90;;
54599;SDS011;40500;51.084;16.958;2023-06-24T01:00:18;19.50;;;13.90;;
54599;SDS011;40500;51.084;16.958;2023-06-24T01:02:48;20.10;;;14.10;;
54599;SDS011;40500;51.084;16.958;2023-06-24T01:05:18;15.10;;;12.60;;
54599;SDS011;40500;51.084;16.958;2023-06-24T01:07:49;20.10;;;12.50;;
54599;SDS011;40500;51.084;16.958;2023-06-24T01:10:22;16.00;;;11.70;;
54599;SDS011;40500;51.084;16.958;2023-06-24T01:12:50;14.70;;;11.50;;
54599;SDS011;40500;51.084;16.958;2023-06-24T01:15:18;14.80;;;10.30;;
54599;SDS011;40500;51.084;16.958;2023-06-24T01:17:50;11.20;;;9.80;;
54599;SDS011;40500;51.084;16.958;2023-06-24T01:20:25;14.20;;;10.20;;
54599;SDS011;40500;51.084;16.958;2023-06-24T01:23:06;14.40;;;10.90;;
54599;SDS011;40500;51.084;16.958;2023-06-24T01:25:52;4.50;;;4.10;;
54599;SDS011;40500;51.084;16.958;2023-06-24T01:28:56;6.00;;;4.10;;
54599;SDS011;40500;51.084;16.958;2023-06-24T01:31:39;4.30;;;3.90;;
54599;SDS011;40500;51.084;16.958;2023-06-24T01:34:15;6.80;;;4.50;;
54599;SDS011;40500;51.084;16.958;2023-06-24T01:36:51;6.40;;;5.00;;
54599;SDS011;40500;51.084;16.958;2023-06-24T01:39:27;5.60;;;4.60;;
54599;SDS011;40500;51.084;16.958;2023-06-24T01:42:00;4.90;;;4.40;;
54599;SDS011;40500;51.084;16.958;2023-06-24T01:44:34;8.90;;;4.90;;
54599;SDS011;40500;51.084;16.958;2023-06-24T01:47:05;7.40;;;5.00;;
54599;SDS011;40500;51.084;16.958;2023-06-24T01:49:36;7.00;;;4.60;;
54599;SDS011;40500;51.084;16.958;2023-06-24T01:52:09;7.00;;;6.00;;
54599;SDS011;40500;51.084;16.958;2023-06-24T01:54:38;9.20;;;5.10;;
54599;SDS011;40500;51.084;16.958;2023-06-24T01:57:08;8.90;;;6.10;;
54599;SDS011;40500;51.084;16.958;2023-06-24T01:59:39;6.90;;;5.70;;
54599;SDS011;40500;51.084;16.958;2023-06-24T02:02:11;8.60;;;6.80;;
54599;SDS011;40500;51.084;16.958;2023-06-24T02:04:43;8.60;;;6.70;;
54599;SDS011;40500;51.084;16.958;2023-06-24T02:07:12;7.00;;;5.80;;
54599;SDS011;40500;51.084;16.958;2023-06-24T02:09:41;9.10;;;6.20;;
54599;SDS011;40500;51.084;16.958;2023-06-24T02:12:12;7.80;;;5.90;;
54599;SDS011;40500;51.084;16.958;2023-06-24T02:14:41;8.40;;;6.40;;
54599;SDS011;40500;51.084;16.958;2023-06-24T02:17:10;12.00;;;7.40;;
54599;SDS011;40500;51.084;16.958;2023-06-24T02:19:41;13.20;;;7.40;;
54599;SDS011;40500;51.084;16.958;2023-06-24T02:22:10;8.20;;;7.30;;
54599;SDS011;40500;51.084;16.958;2023-06-24T02:24:38;6.90;;;6.10;;
54599;SDS011;40500;51.084;16.958;2023-06-24T02:27:07;7.20;;;6.30;;
54599;SDS011;40500;51.084;16.958;2023-06-24T02:29:37;8.70;;;6.30;;
54599;SDS011;40500;51.084;16.958;2023-06-24T02:32:07;8.60;;;6.70;;
54599;SDS011;40500;51.084;16.958;2023-06-24T02:34:36;11.20;;;6.90;;
54599;SDS011;40500;51.084;16.958;2023-06-24T02:37:05;8.10;;;6.00;;
54599;SDS011;40500;51.084;16.958;2023-06-24T02:39:34;7.10;;;5.80;;
54599;SDS011;40500;51.084;16.958;2023-06-24T02:42:04;10.90;;;6.60;;
54599;SDS011;40500;51.084;16.958;2023-06-24T02:44:32;9.60;;;6.20;;
54599;SDS011;40500;51.084;16.958;2023-06-24T02:47:00;9.70;;;6.00;;
54599;SDS011;40500;51.084;16.958;2023-06-24T02:49:29;9.30;;;5.70;;
54599;SDS011;40500;51.084;16.958;2023-06-24T02:51:58;15.30;;;6.60;;
54599;SDS011;40500;51.084;16.958;2023-06-24T02:54:27;15.80;;;9.00;;
54599;SDS011;40500;51.084;16.958;2023-06-24T02:57:16;16.60;;;10.20;;
54599;SDS011;40500;51.084;16.958;2023-06-24T03:00:10;11.00;;;8.10;;
54599;SDS011;40500;51.084;16.958;2023-06-24T03:03:16;7.70;;;6.20;;
54599;SDS011;40500;51.084;16.958;2023-06-24T03:05:51;7.90;;;6.50;;
54599;SDS011;40500;51.084;16.958;2023-06-24T03:08:23;8.80;;;6.00;;
54599;SDS011;40500;51.084;16.958;2023-06-24T03:10:51;9.10;;;6.20;;
54599;SDS011;40500;51.084;16.958;2023-06-24T03:13:22;8.80;;;5.50;;
54599;SDS011;40500;51.084;16.958;2023-06-24T03:16:12;7.30;;;5.60;;
54599;SDS011;40500;51.084;16.958;2023-06-24T03:18:47;6.10;;;5.30;;
54599;SDS011;40500;51.084;16.958;2023-06-24T03:21:16;6.30;;;5.30;;
54599;SDS011;40500;51.084;16.958;2023-06-24T03:23:44;8.70;;;5.50;;
54599;SDS011;40500;51.084;16.958;2023-06-24T03:26:13;6.10;;;4.10;;
54599;SDS011;40500;51.084;16.958;2023-06-24T03:28:42;6.70;;;5.70;;
54599;SDS011;40500;51.084;16.958;2023-06-24T03:31:14;7.00;;;6.00;;
54599;SDS011;40500;51.084;16.958;2023-06-24T03:33:44;8.10;;;6.50;;
54599;SDS011;40500;51.084;16.958;2023-06-24T03:36:15;7.40;;;6.40;;
54599;SDS011;40500;51.084;16.958;2023-06-24T03:38:44;8.70;;;6.30;;
54599;SDS011;40500;51.084;16.958;2023-06-24T03:41:11;7.10;;;5.80;;
54599;SDS011;40500;51.084;16.958;2023-06-24T03:43:39;5.60;;;4.70;;
54599;SDS011;40500;51.084;16.958;2023-06-24T03:46:08;7.40;;;5.60;;
54599;SDS011;40500;51.084;16.958;2023-06-24T03:48:36;6.90;;;6.00;;
54599;SDS011;40500;51.084;16.958;2023-06-24T03:51:04;5.60;;;5.10;;
54599;SDS011;40500;51.084;16.958;2023-06-24T03:53:32;7.00;;;5.30;;
54599;SDS011;40500;51.084;16.958;2023-06-24T03:56:00;5.30;;;4.80;;
54599;SDS011;40500;51.084;16.958;2023-06-24T03:58:30;5.50;;;4.90;;
54599;SDS011;40500;51.084;16.958;2023-06-24T04:00:58;6.20;;;4.70;;
54599;SDS011;40500;51.084;16.958;2023-06-24T04:03:27;5.60;;;4.20;;
54599;SDS011;40500;51.084;16.958;2023-06-24T04:05:59;8.00;;;4.90;;
54599;SDS011;40500;51.084;16.958;2023-06-24T04:08:28;7.00;;;4.40;;
54599;SDS011;40500;51.084;16.958;2023-06-24T04:10:55;5.00;;;4.20;;
54599;SDS011;40500;51.084;16.958;2023-06-24T04:13:26;4.60;;;4.00;;
54599;SDS011;40500;51.084;16.958;2023-06-24T04:15:53;6.10;;;3.80;;
54599;SDS011;40500;51.084;16.958;2023-06-24T04:18:22;7.30;;;4.60;;
54599;SDS011;40500;51.084;16.958;2023-06-24T04:20:53;5.50;;;4.30;;
54599;SDS011;40500;51.084;16.958;2023-06-24T04:23:22;7.90;;;4.20;;
54599;SDS011;40500;51.084;16.958;2023-06-24T04:25:50;7.50;;;4.40;;
54599;SDS011;40500;51.084;16.958;2023-06-24T04:28:20;6.60;;;3.90;;
54599;SDS011;40500;51.084;16.958;2023-06-24T04:30:49;5.90;;;4.20;;
54599;SDS011;40500;51.084;16.958;2023-06-24T04:33:17;5.10;;;4.40;;
54599;SDS011;40500;51.084;16.958;2023-06-24T04:35:46;6.80;;;4.40;;
54599;SDS011;40500;51.084;16.958;2023-06-24T04:38:14;7.60;;;3.90;;
54599;SDS011;40500;51.084;16.958;2023-06-24T04:40:49;4.40;;;4.00;;
54599;SDS011;40500;51.084;16.958;2023-06-24T04:43:17;4.80;;;4.20;;
54599;SDS011;40500;51.084;16.958;2023-06-24T04:45:44;7.20;;;3.90;;
54599;SDS011;40500;51.084;16.958;2023-06-24T04:48:12;4.20;;;3.80;;
54599;SDS011;40500;51.084;16.958;2023-06-24T04:50:41;4.50;;;3.80;;
54599;SDS011;40500;51.084;16.958;2023-06-24T04:53:09;5.70;;;3.40;;
54599;SDS011;40500;51.084;16.958;2023-06-24T04:55:37;4.60;;;3.50;;
54599;SDS011;40500;51.084;16.958;2023-06-24T04:58:05;5.00;;;3.20;;
54599;SDS011;40500;51.084;16.958;2023-06-24T05:00:34;5.20;;;3.60;;
54599;SDS011;40500;51.084;16.958;2023-06-24T05:03:02;4.80;;;3.60;;
54599;SDS011;40500;51.084;16.958;2023-06-24T05:05:32;5.30;;;3.40;;
54599;SDS011;40500;51.084;16.958;2023-06-24T05:08:02;6.10;;;3.30;;
54599;SDS011;40500;51.084;16.958;2023-06-24T05:10:33;4.60;;;3.40;;
54599;SDS011;40500;51.084;16.958;2023-06-24T05:13:01;5.90;;;4.00;;
54599;SDS011;40500;51.084;16.958;2023-06-24T05:15:29;6.30;;;3.90;;
54599;SDS011;40500;51.084;16.958;2023-06-24T05:17:56;6.00;;;4.50;;
54599;SDS011;40500;51.084;16.958;2023-06-24T05:20:24;4.10;;;3.70;;
54599;SDS011;40500;51.084;16.958;2023-06-24T05:22:53;4.10;;;3.60;;
54599;SDS011;40500;51.084;16.958;2023-06-24T05:25:21;4.80;;;3.70;;
54599;SDS011;40500;51.084;16.958;2023-06-24T05:27:49;4.30;;;3.60;;
54599;SDS011;40500;51.084;16.958;2023-06-24T05:30:18;3.70;;;3.20;;
54599;SDS011;40500;51.084;16.958;2023-06-24T05:32:46;4.20;;;3.20;;
54599;SDS011;40500;51.084;16.958;2023-06-24T05:35:13;4.90;;;3.30;;
54599;SDS011;40500;51.084;16.958;2023-06-24T05:37:41;3.50;;;3.10;;
54599;SDS011;40500;51.084;16.958;2023-06-24T05:40:09;4.90;;;3.80;;
54599;SDS011;40500;51.084;16.958;2023-06-24T05:42:39;5.80;;;4.30;;
54599;SDS011;40500;51.084;16.958;2023-06-24T05:45:08;5.30;;;4.10;;
54599;SDS011;40500;51.084;16.958;2023-06-24T05:47:37;5.50;;;3.80;;
54599;SDS011;40500;51.084;16.958;2023-06-24T05:50:05;5.20;;;4.20;;
54599;SDS011;40500;51.084;16.958;2023-06-24T05:52:34;5.60;;;4.10;;
54599;SDS011;40500;51.084;16.958;2023-06-24T05:55:01;6.50;;;4.30;;
54599;SDS011;40500;51.084;16.958;2023-06-24T05:57:30;5.90;;;4.40;;
54599;SDS011;40500;51.084;16.958;2023-06-24T05:59:57;5.70;;;4.60;;
54599;SDS011;40500;51.084;16.958;2023-06-24T06:02:25;5.90;;;4.60;;
54599;SDS011;40500;51.084;16.958;2023-06-24T06:04:53;5.60;;;4.20;;
54599;SDS011;40500;51.084;16.958;2023-06-24T06:07:20;3.40;;;3.10;;
54599;SDS011;40500;51.084;16.958;2023-06-24T06:09:49;4.80;;;3.50;;
54599;SDS011;40500;51.084;16.958;2023-06-24T06:12:16;5.40;;;3.40;;
54599;SDS011;40500;51.084;16.958;2023-06-24T06:14:44;3.90;;;3.40;;
54599;SDS011;40500;51.084;16.958;2023-06-24T06:17:13;3.80;;;3.00;;
54599;SDS011;40500;51.084;16.958;2023-06-24T06:19:41;5.80;;;3.30;;
54599;SDS011;40500;51.084;16.958;2023-06-24T06:22:14;4.70;;;3.20;;
54599;SDS011;40500;51.084;16.958;2023-06-24T06:24:41;3.80;;;3.20;;
54599;SDS011;40500;51.084;16.958;2023-06-24T06:27:09;4.40;;;3.70;;
54599;SDS011;40500;51.084;16.958;2023-06-24T06:29:37;7.00;;;4.40;;
54599;SDS011;40500;51.084;16.958;2023-06-24T06:32:05;7.10;;;4.70;;
54599;SDS011;40500;51.084;16.958;2023-06-24T06:34:35;6.10;;;4.50;;
54599;SDS011;40500;51.084;16.958;2023-06-24T06:37:03;5.70;;;4.20;;
54599;SDS011;40500;51.084;16.958;2023-06-24T06:39:32;7.00;;;5.00;;
54599;SDS011;40500;51.084;16.958;2023-06-24T06:41:59;6.50;;;4.50;;
54599;SDS011;40500;51.084;16.958;2023-06-24T06:44:27;6.10;;;4.00;;
54599;SDS011;40500;51.084;16.958;2023-06-24T06:46:55;6.20;;;5.20;;
54599;SDS011;40500;51.084;16.958;2023-06-24T06:49:24;8.00;;;5.10;;
54599;SDS011;40500;51.084;16.958;2023-06-24T06:51:53;5.40;;;4.50;;
54599;SDS011;40500;51.084;16.958;2023-06-24T06:54:21;6.90;;;4.90;;
54599;SDS011;40500;51.084;16.958;2023-06-24T06:56:49;7.60;;;4.40;;
54599;SDS011;40500;51.084;16.958;2023-06-24T06:59:16;6.00;;;4.60;;
54599;SDS011;40500;51.084;16.958;2023-06-24T07:01:49;6.60;;;4.50;;
54599;SDS011;40500;51.084;16.958;2023-06-24T07:04:17;5.50;;;4.40;;
54599;SDS011;40500;51.084;16.958;2023-06-24T07:06:55;8.30;;;4.40;;
54599;SDS011;40500;51.084;16.958;2023-06-24T07:09:22;8.30;;;4.40;;
54599;SDS011;40500;51.084;16.958;2023-06-24T07:11:50;7.70;;;5.30;;
54599;SDS011;40500;51.084;16.958;2023-06-24T07:14:18;7.50;;;4.90;;
54599;SDS011;40500;51.084;16.958;2023-06-24T07:16:46;5.10;;;4.50;;
54599;SDS011;40500;51.084;16.958;2023-06-24T07:19:13;6.10;;;4.50;;
54599;SDS011;40500;51.084;16.958;2023-06-24T07:21:41;6.00;;;5.40;;
54599;SDS011;40500;51.084;16.958;2023-06-24T07:24:09;8.00;;;5.10;;
54599;SDS011;40500;51.084;16.958;2023-06-24T07:26:36;7.30;;;5.20;;
54599;SDS011;40500;51.084;16.958;2023-06-24T07:29:06;6.70;;;5.50;;
54599;SDS011;40500;51.084;16.958;2023-06-24T07:31:36;7.70;;;5.70;;
54599;SDS011;40500;51.084;16.958;2023-06-24T07:34:04;7.60;;;5.50;;
54599;SDS011;40500;51.084;16.958;2023-06-24T07:36:32;8.20;;;6.70;;
54599;SDS011;40500;51.084;16.958;2023-06-24T07:38:59;7.70;;;5.90;;
54599;SDS011;40500;51.084;16.958;2023-06-24T07:41:27;8.40;;;6.50;;
54599;SDS011;40500;51.084;16.958;2023-06-24T07:43:55;8.00;;;5.70;;
54599;SDS011;40500;51.084;16.958;2023-06-24T07:46:22;10.30;;;7.10;;
54599;SDS011;40500;51.084;16.958;2023-06-24T07:48:53;9.50;;;7.20;;
54599;SDS011;40500;51.084;16.958;2023-06-24T07:51:21;8.50;;;6.90;;
54599;SDS011;40500;51.084;16.958;2023-06-24T07:53:48;10.50;;;7.20;;
54599;SDS011;40500;51.084;16.958;2023-06-24T07:56:16;8.80;;;6.80;;
54599;SDS011;40500;51.084;16.958;2023-06-24T07:58:44;9.80;;;7.40;;
54599;SDS011;40500;51.084;16.958;2023-06-24T08:01:11;11.00;;;7.80;;
54599;SDS011;40500;51.084;16.958;2023-06-24T08:03:39;9.70;;;7.40;;
54599;SDS011;40500;51.084;16.958;2023-06-24T08:06:07;9.80;;;7.30;;
54599;SDS011;40500;51.084;16.958;2023-06-24T08:08:35;9.40;;;7.60;;
54599;SDS011;40500;51.084;16.958;2023-06-24T08:11:03;9.70;;;7.80;;
54599;SDS011;40500;51.084;16.958;2023-06-24T08:13:30;9.60;;;8.50;;
54599;SDS011;40500;51.084;16.958;2023-06-24T08:15:58;8.60;;;7.70;;
54599;SDS011;40500;51.084;16.958;2023-06-24T08:18:26;11.40;;;8.10;;
54599;SDS011;40500;51.084;16.958;2023-06-24T08:20:53;9.60;;;8.10;;
54599;SDS011;40500;51.084;16.958;2023-06-24T08:23:21;9.70;;;8.30;;
54599;SDS011;40500;51.084;16.958;2023-06-24T08:25:49;11.50;;;7.70;;
54599;SDS011;40500;51.084;16.958;2023-06-24T08:28:22;10.00;;;7.70;;
54599;SDS011;40500;51.084;16.958;2023-06-24T08:30:50;10.00;;;8.10;;
54599;SDS011;40500;51.084;16.958;2023-06-24T08:33:18;9.30;;;7.50;;
54599;SDS011;40500;51.084;16.958;2023-06-24T08:35:45;9.00;;;7.00;;
54599;SDS011;40500;51.084;16.958;2023-06-24T08:38:13;10.70;;;8.10;;
54599;SDS011;40500;51.084;16.958;2023-06-24T08:40:41;9.10;;;7.30;;
54599;SDS011;40500;51.084;16.958;2023-06-24T08:43:10;10.40;;;7.50;;
54599;SDS011;40500;51.084;16.958;2023-06-24T08:45:39;8.20;;;7.40;;
54599;SDS011;40500;51.084;16.958;2023-06-24T08:48:08;12.50;;;7.20;;
54599;SDS011;40500;51.084;16.958;2023-06-24T08:50:40;8.80;;;7.40;;
54599;SDS011;40500;51.084;16.958;2023-06-24T08:53:14;8.30;;;7.50;;
54599;SDS011;40500;51.084;16.958;2023-06-24T08:55:43;12.50;;;7.90;;
54599;SDS011;40500;51.084;16.958;2023-06-24T08:58:12;10.00;;;8.50;;
54599;SDS011;40500;51.084;16.958;2023-06-24T09:00:40;9.50;;;7.40;;
54599;SDS011;40500;51.084;16.958;2023-06-24T09:03:09;8.60;;;7.40;;
54599;SDS011;40500;51.084;16.958;2023-06-24T09:05:37;11.10;;;7.80;;
54599;SDS011;40500;51.084;16.958;2023-06-24T09:08:05;9.20;;;7.80;;
54599;SDS011;40500;51.084;16.958;2023-06-24T09:10:33;8.50;;;7.60;;
54599;SDS011;40500;51.084;16.958;2023-06-24T09:13:03;11.20;;;8.30;;
54599;SDS011;40500;51.084;16.958;2023-06-24T09:15:32;8.70;;;7.50;;
54599;SDS011;40500;51.084;16.958;2023-06-24T09:18:01;11.50;;;9.50;;
54599;SDS011;40500;51.084;16.958;2023-06-24T09:20:30;10.20;;;7.80;;
54599;SDS011;40500;51.084;16.958;2023-06-24T09:22:59;12.30;;;8.90;;
54599;SDS011;40500;51.084;16.958;2023-06-24T09:25:28;10.10;;;7.70;;
54599;SDS011;40500;51.084;16.958;2023-06-24T09:27:58;12.40;;;9.10;;
54599;SDS011;40500;51.084;16.958;2023-06-24T09:30:26;10.40;;;8.40;;
54599;SDS011;40500;51.084;16.958;2023-06-24T09:32:55;12.00;;;8.00;;
54599;SDS011;40500;51.084;16.958;2023-06-24T09:35:25;8.40;;;7.20;;
54599;SDS011;40500;51.084;16.958;2023-06-24T09:37:53;14.50;;;8.60;;
54599;SDS011;40500;51.084;16.958;2023-06-24T09:40:22;11.70;;;8.00;;
54599;SDS011;40500;51.084;16.958;2023-06-24T09:42:51;14.10;;;8.70;;
54599;SDS011;40500;51.084;16.958;2023-06-24T09:45:22;11.20;;;8.40;;
54599;SDS011;40500;51.084;16.958;2023-06-24T09:47:51;11.10;;;8.60;;
54599;SDS011;40500;51.084;16.958;2023-06-24T09:50:20;11.50;;;8.00;;
54599;SDS011;40500;51.084;16.958;2023-06-24T09:52:49;9.40;;;8.30;;
54599;SDS011;40500;51.084;16.958;2023-06-24T09:55:17;9.60;;;7.80;;
54599;SDS011;40500;51.084;16.958;2023-06-24T09:57:45;9.30;;;8.00;;
54599;SDS011;40500;51.084;16.958;2023-06-24T10:00:17;11.40;;;8.70;;
54599;SDS011;40500;51.084;16.958;2023-06-24T10:02:47;8.40;;;7.20;;
54599;SDS011;40500;51.084;16.958;2023-06-24T10:05:18;7.90;;;7.10;;
54599;SDS011;40500;51.084;16.958;2023-06-24T10:07:46;9.90;;;7.40;;
54599;SDS011;40500;51.084;16.958;2023-06-24T10:10:15;11.10;;;8.20;;
54599;SDS011;40500;51.084;16.958;2023-06-24T10:12:44;11.10;;;7.50;;
54599;SDS011;40500;51.084;16.958;2023-06-24T10:15:15;8.30;;;6.80;;
54599;SDS011;40500;51.084;16.958;2023-06-24T10:17:43;10.80;;;7.40;;
54599;SDS011;40500;51.084;16.958;2023-06-24T10:20:13;9.50;;;7.40;;
54599;SDS011;40500;51.084;16.958;2023-06-24T10:22:52;9.70;;;7.30;;
54599;SDS011;40500;51.084;16.958;2023-06-24T10:25:20;8.20;;;6.90;;
54599;SDS011;40500;51.084;16.958;2023-06-24T10:27:51;10.10;;;7.00;;
54599;SDS011;40500;51.084;16.958;2023-06-24T10:30:21;10.30;;;6.60;;
54599;SDS011;40500;51.084;16.958;2023-06-24T10:32:51;6.80;;;6.10;;
54599;SDS011;40500;51.084;16.958;2023-06-24T10:35:23;9.60;;;6.80;;
54599;SDS011;40500;51.084;16.958;2023-06-24T10:37:55;7.80;;;5.90;;
54599;SDS011;40500;51.084;16.958;2023-06-24T10:40:37;10.10;;;6.60;;
54599;SDS011;40500;51.084;16.958;2023-06-24T10:45:53;7.40;;;6.60;;
54599;SDS011;40500;51.084;16.958;2023-06-24T10:48:21;10.60;;;6.80;;
54599;SDS011;40500;51.084;16.958;2023-06-24T10:50:49;7.30;;;5.70;;
54599;SDS011;40500;51.084;16.958;2023-06-24T10:53:17;9.40;;;6.30;;
54599;SDS011;40500;51.084;16.958;2023-06-24T10:55:45;6.20;;;5.60;;
54599;SDS011;40500;51.084;16.958;2023-06-24T10:58:14;6.60;;;5.50;;
54599;SDS011;40500;51.084;16.958;2023-06-24T11:00:42;6.60;;;5.30;;
54599;SDS011;40500;51.084;16.958;2023-06-24T11:03:11;6.90;;;5.70;;
54599;SDS011;40500;51.084;16.958;2023-06-24T11:05:40;7.60;;;6.00;;
54599;SDS011;40500;51.084;16.958;2023-06-24T11:08:08;6.70;;;5.60;;
54599;SDS011;40500;51.084;16.958;2023-06-24T11:10:43;7.60;;;5.40;;
54599;SDS011;40500;51.084;16.958;2023-06-24T11:13:11;8.40;;;5.50;;
54599;SDS011;40500;51.084;16.958;2023-06-24T11:15:39;7.20;;;4.90;;
54599;SDS011;40500;51.084;16.958;2023-06-24T11:18:08;5.80;;;4.40;;
54599;SDS011;40500;51.084;16.958;2023-06-24T11:20:36;6.40;;;4.20;;
54599;SDS011;40500;51.084;16.958;2023-06-24T11:23:09;5.90;;;4.10;;
54599;SDS011;40500;51.084;16.958;2023-06-24T11:25:39;5.40;;;4.20;;
54599;SDS011;40500;51.084;16.958;2023-06-24T11:28:16;7.30;;;4.50;;
54599;SDS011;40500;51.084;16.958;2023-06-24T11:30:49;7.00;;;4.30;;
54599;SDS011;40500;51.084;16.958;2023-06-24T11:33:26;5.50;;;4.10;;
54599;SDS011;40500;51.084;16.958;2023-06-24T11:38:21;7.50;;;4.40;;
54599;SDS011;40500;51.084;16.958;2023-06-24T11:40:50;4.70;;;3.90;;
54599;SDS011;40500;51.084;16.958;2023-06-24T11:43:18;4.60;;;4.00;;
54599;SDS011;40500;51.084;16.958;2023-06-24T11:45:48;4.40;;;4.00;;
54599;SDS011;40500;51.084;16.958;2023-06-24T11:48:16;8.70;;;4.60;;
54599;SDS011;40500;51.084;16.958;2023-06-24T11:50:43;6.00;;;4.60;;
54599;SDS011;40500;51.084;16.958;2023-06-24T11:53:22;7.00;;;4.70;;
54599;SDS011;40500;51.084;16.958;2023-06-24T11:55:57;5.50;;;3.90;;
54599;SDS011;40500;51.084;16.958;2023-06-24T11:58:25;4.40;;;4.00;;
54599;SDS011;40500;51.084;16.958;2023-06-24T12:00:53;5.70;;;4.00;;
54599;SDS011;40500;51.084;16.958;2023-06-24T12:03:23;6.00;;;3.90;;
54599;SDS011;40500;51.084;16.958;2023-06-24T12:05:51;7.80;;;3.90;;
54599;SDS011;40500;51.084;16.958;2023-06-24T12:08:19;5.90;;;3.80;;
54599;SDS011;40500;51.084;16.958;2023-06-24T12:10:49;5.80;;;3.90;;
54599;SDS011;40500;51.084;16.958;2023-06-24T12:13:16;6.30;;;3.90;;
54599;SDS011;40500;51.084;16.958;2023-06-24T12:15:44;5.00;;;3.40;;
54599;SDS011;40500;51.084;16.958;2023-06-24T12:18:12;4.30;;;3.60;;
54599;SDS011;40500;51.084;16.958;2023-06-24T12:20:40;5.10;;;3.20;;
54599;SDS011;40500;51.084;16.958;2023-06-24T12:23:10;8.40;;;4.20;;
54599;SDS011;40500;51.084;16.958;2023-06-24T12:25:38;5.70;;;3.90;;
54599;SDS011;40500;51.084;16.958;2023-06-24T12:28:05;4.90;;;3.50;;
54599;SDS011;40500;51.084;16.958;2023-06-24T12:30:33;4.90;;;3.70;;
54599;SDS011;40500;51.084;16.958;2023-06-24T12:33:01;5.30;;;3.90;;
54599;SDS011;40500;51.084;16.958;2023-06-24T12:35:30;4.60;;;4.00;;
54599;SDS011;40500;51.084;16.958;2023-06-24T12:37:57;4.40;;;3.70;;
54599;SDS011;40500;51.084;16.958;2023-06-24T12:40:26;4.30;;;3.90;;
54599;SDS011;40500;51.084;16.958;2023-06-24T12:42:53;4.40;;;3.60;;
54599;SDS011;40500;51.084;16.958;2023-06-24T12:45:23;4.10;;;3.50;;
54599;SDS011;40500;51.084;16.958;2023-06-24T12:47:51;4.00;;;3.40;;
54599;SDS011;40500;51.084;16.958;2023-06-24T12:50:19;4.30;;;3.60;;
54599;SDS011;40500;51.084;16.958;2023-06-24T12:52:46;4.20;;;3.80;;
54599;SDS011;40500;51.084;16.958;2023-06-24T12:55:14;4.50;;;3.50;;
54599;SDS011;40500;51.084;16.958;2023-06-24T12:57:43;5.70;;;3.50;;
54599;SDS011;40500;51.084;16.958;2023-06-24T13:00:12;7.50;;;3.70;;
54599;SDS011;40500;51.084;16.958;2023-06-24T13:02:41;3.90;;;3.40;;
54599;SDS011;40500;51.084;16.958;2023-06-24T13:05:09;3.20;;;2.90;;
54599;SDS011;40500;51.084;16.958;2023-06-24T13:07:36;5.60;;;3.30;;
54599;SDS011;40500;51.084;16.958;2023-06-24T13:10:05;7.60;;;3.50;;
54599;SDS011;40500;51.084;16.958;2023-06-24T13:12:33;4.10;;;3.70;;
54599;SDS011;40500;51.084;16.958;2023-06-24T13:15:02;4.90;;;3.70;;
54599;SDS011;40500;51.084;16.958;2023-06-24T13:17:30;5.10;;;3.90;;
54599;SDS011;40500;51.084;16.958;2023-06-24T13:19:58;3.60;;;3.30;;
54599;SDS011;40500;51.084;16.958;2023-06-24T13:22:28;4.00;;;3.60;;
54599;SDS011;40500;51.084;16.958;2023-06-24T13:24:55;4.80;;;3.20;;
54599;SDS011;40500;51.084;16.958;2023-06-24T13:27:23;3.50;;;3.20;;
54599;SDS011;40500;51.084;16.958;2023-06-24T13:29:51;5.10;;;3.70;;
54599;SDS011;40500;51.084;16.958;2023-06-24T13:32:26;3.20;;;2.70;;
54599;SDS011;40500;51.084;16.958;2023-06-24T13:34:53;3.30;;;3.00;;
54599;SDS011;40500;51.084;16.958;2023-06-24T13:37:21;3.30;;;2.90;;
54599;SDS011;40500;51.084;16.958;2023-06-24T13:39:49;3.40;;;3.10;;
54599;SDS011;40500;51.084;16.958;2023-06-24T13:42:16;3.60;;;2.90;;
54599;SDS011;40500;51.084;16.958;2023-06-24T13:44:44;3.70;;;2.80;;
54599;SDS011;40500;51.084;16.958;2023-06-24T13:47:12;3.90;;;2.60;;
54599;SDS011;40500;51.084;16.958;2023-06-24T13:49:40;3.50;;;3.20;;
54599;SDS011;40500;51.084;16.958;2023-06-24T13:52:08;3.60;;;3.20;;
54599;SDS011;40500;51.084;16.958;2023-06-24T13:54:35;3.10;;;2.70;;
54599;SDS011;40500;51.084;16.958;2023-06-24T13:57:06;3.90;;;2.80;;
54599;SDS011;40500;51.084;16.958;2023-06-24T13:59:34;4.50;;;2.90;;
54599;SDS011;40500;51.084;16.958;2023-06-24T14:02:02;2.70;;;2.50;;
54599;SDS011;40500;51.084;16.958;2023-06-24T14:04:30;3.90;;;2.70;;
54599;SDS011;40500;51.084;16.958;2023-06-24T14:06:58;3.70;;;3.10;;
54599;SDS011;40500;51.084;16.958;2023-06-24T14:09:26;5.20;;;3.00;;
54599;SDS011;40500;51.084;16.958;2023-06-24T14:11:54;6.90;;;2.60;;
54599;SDS011;40500;51.084;16.958;2023-06-24T14:14:25;3.70;;;2.70;;
54599;SDS011;40500;51.084;16.958;2023-06-24T14:16:55;3.10;;;2.80;;
54599;SDS011;40500;51.084;16.958;2023-06-24T14:19:23;5.50;;;2.80;;
54599;SDS011;40500;51.084;16.958;2023-06-24T14:21:52;3.30;;;3.00;;
54599;SDS011;40500;51.084;16.958;2023-06-24T14:24:20;3.10;;;2.60;;
54599;SDS011;40500;51.084;16.958;2023-06-24T14:26:48;3.90;;;2.80;;
54599;SDS011;40500;51.084;16.958;2023-06-24T14:29:17;3.90;;;2.60;;
54599;SDS011;40500;51.084;16.958;2023-06-24T14:31:49;4.50;;;2.80;;
54599;SDS011;40500;51.084;16.958;2023-06-24T14:34:17;4.40;;;2.80;;
54599;SDS011;40500;51.084;16.958;2023-06-24T14:36:45;3.00;;;2.70;;
54599;SDS011;40500;51.084;16.958;2023-06-24T14:39:14;3.10;;;2.80;;
54599;SDS011;40500;51.084;16.958;2023-06-24T14:41:44;3.50;;;2.90;;
54599;SDS011;40500;51.084;16.958;2023-06-24T14:44:11;3.40;;;2.20;;
54599;SDS011;40500;51.084;16.958;2023-06-24T14:46:39;5.40;;;2.40;;
54599;SDS011;40500;51.084;16.958;2023-06-24T14:49:07;2.60;;;2.40;;